Nazare do Piaui, Brazil
Current Conditions -  °F | °C
As of 10:00 PM on Sunday 23 Nov 2014 (Local Time) from SBTE Reporting Station
Clear Clear  
Wind Chill: 84°   Ceiling: Unl
Heat Index: 87°   Visibility: 6mi
Dew Point: 68°   Wind: 8mph
Humidity: 58%   Direction: 350°N
Pressure: 29.85"   Gusts: NA
Location:  6.97°S, 42.67°W
Report Text: SBTE 240100Z 35007KT CAVOK 29/20 Q1011
Loading
Personal Weather Stations






























Interactive Weather Map New forecast layout! Learn more

10-Day Weather Forecast

Advertisements
Track Severe Weather on mobile